createdAt,value
2022-10-26T00:01:25.594Z,7.47
2022-10-26T00:08:08.450Z,8.07
2022-10-26T00:14:50.751Z,7.85
2022-10-26T00:21:33.113Z,6.72
2022-10-26T00:28:15.425Z,8.18
2022-10-26T00:35:06.062Z,14.77
2022-10-26T00:41:58.456Z,11.30
2022-10-26T00:48:47.487Z,12.07
2022-10-26T00:55:37.313Z,10.98
2022-10-26T01:02:19.847Z,10.57
2022-10-26T01:09:04.542Z,13.60
2022-10-26T01:16:13.518Z,9.00
2022-10-26T01:23:13.360Z,12.13
2022-10-26T01:30:22.259Z,11.68
2022-10-26T01:37:12.573Z,9.88
2022-10-26T01:44:39.535Z,10.73
2022-10-26T01:51:23.606Z,10.43
2022-10-26T01:58:22.279Z,8.05
2022-10-26T02:05:16.647Z,11.10
2022-10-26T02:11:59.702Z,13.65
2022-10-26T02:19:26.801Z,9.98
2022-10-26T02:26:11.999Z,9.30
2022-10-26T02:32:57.659Z,9.98
2022-10-26T02:39:41.774Z,9.80
2022-10-26T02:46:26.826Z,15.43
2022-10-26T02:53:30.445Z,10.50
2022-10-26T03:00:15.968Z,10.38
2022-10-26T03:06:58.568Z,8.98
2022-10-26T03:13:41.004Z,10.57
2022-10-26T03:20:24.081Z,13.45
2022-10-26T03:27:06.401Z,12.95
2022-10-26T03:33:48.742Z,11.43
2022-10-26T03:40:31.078Z,13.40
2022-10-26T03:47:13.695Z,9.52
2022-10-26T03:53:56.467Z,11.90
2022-10-26T04:00:38.810Z,14.98
2022-10-26T04:07:21.175Z,16.05
2022-10-26T04:14:03.571Z,14.35
2022-10-26T04:20:45.904Z,8.68
2022-10-26T04:27:28.333Z,10.98
2022-10-26T04:34:11.467Z,10.85
2022-10-26T04:40:55.068Z,10.27
2022-10-26T04:47:37.474Z,7.80
2022-10-26T04:54:20.243Z,8.10
2022-10-26T05:01:03.176Z,8.20
2022-10-26T05:07:54.227Z,8.00
2022-10-26T05:14:36.557Z,8.48
2022-10-26T05:21:21.781Z,7.28
2022-10-26T05:28:06.456Z,6.75
2022-10-26T05:34:49.988Z,7.60
2022-10-26T05:41:32.358Z,7.25
2022-10-26T05:48:14.677Z,7.63
2022-10-26T05:54:57.087Z,8.15
2022-10-26T06:02:04.359Z,11.88
2022-10-26T06:08:47.187Z,8.38
2022-10-26T06:15:32.298Z,6.28
2022-10-26T06:22:47.793Z,9.93
2022-10-26T06:30:00.041Z,9.45
2022-10-26T06:36:43.270Z,7.93
2022-10-26T06:43:32.273Z,8.38
2022-10-26T06:50:17.602Z,8.50
2022-10-26T06:57:00.910Z,12.70
2022-10-26T07:04:03.514Z,10.55
2022-10-26T07:10:47.316Z,12.20
2022-10-26T07:17:30.458Z,9.40
2022-10-26T07:24:13.182Z,11.43
2022-10-26T07:30:58.071Z,11.07
2022-10-26T07:37:40.477Z,12.63
2022-10-26T07:44:22.791Z,17.95
2022-10-26T07:51:05.337Z,12.88
2022-10-26T07:57:50.979Z,14.15
2022-10-26T08:04:36.373Z,12.23
2022-10-26T08:11:18.989Z,10.68
2022-10-26T08:18:01.554Z,7.25
2022-10-26T08:24:46.837Z,10.55
2022-10-26T08:31:29.625Z,7.80
2022-10-26T08:38:11.992Z,6.80
2022-10-26T08:45:00.987Z,7.90
2022-10-26T08:51:43.784Z,6.18
2022-10-26T08:58:37.835Z,7.35
2022-10-26T09:05:38.736Z,3.85
2022-10-26T09:12:31.994Z,7.15
2022-10-26T09:19:56.111Z,4.90
2022-10-26T09:26:56.011Z,6.68
2022-10-26T09:33:40.443Z,7.57
2022-10-26T09:40:40.375Z,7.70
2022-10-26T09:47:30.201Z,6.75
2022-10-26T09:54:19.012Z,6.03
2022-10-26T10:01:01.390Z,8.20
2022-10-26T10:07:43.894Z,7.03
2022-10-26T10:14:27.939Z,8.43
2022-10-26T10:21:11.173Z,7.30
2022-10-26T10:27:54.476Z,6.75
2022-10-26T10:34:36.838Z,7.78
2022-10-26T10:41:21.608Z,8.35
2022-10-26T10:48:13.109Z,10.80
2022-10-26T10:55:18.120Z,7.35
2022-10-26T11:02:06.397Z,8.70
2022-10-26T11:08:57.272Z,7.80
2022-10-26T11:16:03.457Z,7.03
2022-10-26T11:22:52.139Z,9.77
2022-10-26T11:29:48.603Z,6.28
2022-10-26T11:36:33.221Z,4.97
2022-10-26T11:43:25.197Z,9.82
2022-10-26T11:50:17.928Z,5.10
2022-10-26T11:57:01.023Z,6.88
2022-10-26T12:03:47.249Z,5.97
2022-10-26T12:10:35.028Z,3.72
2022-10-26T12:17:46.081Z,6.30
2022-10-26T12:24:35.441Z,5.07
2022-10-26T12:31:35.898Z,4.05
2022-10-26T12:38:24.461Z,6.72
2022-10-26T12:45:20.263Z,5.57
2022-10-26T12:52:03.253Z,6.60
2022-10-26T12:59:05.455Z,5.90
2022-10-26T13:05:50.491Z,6.78
2022-10-26T13:13:03.155Z,5.43
2022-10-26T13:19:48.901Z,4.03
2022-10-26T13:26:32.427Z,5.68
2022-10-26T13:33:24.419Z,9.13
2022-10-26T13:40:07.563Z,7.00
2022-10-26T13:46:59.404Z,9.00
2022-10-26T13:53:49.044Z,4.65
2022-10-26T14:00:31.644Z,7.40
2022-10-26T14:07:22.692Z,6.32
2022-10-26T14:14:05.456Z,6.68
2022-10-26T14:21:01.289Z,6.32
2022-10-26T14:27:44.225Z,5.90
2022-10-26T14:34:26.945Z,5.85
2022-10-26T14:41:09.899Z,7.45
2022-10-26T14:47:55.687Z,7.47
2022-10-26T14:54:38.083Z,7.40
2022-10-26T15:01:25.070Z,5.82
2022-10-26T15:08:56.389Z,8.98
2022-10-26T15:15:39.979Z,5.05
2022-10-26T15:22:29.518Z,7.78
2022-10-26T15:29:36.024Z,7.10
2022-10-26T15:36:21.518Z,4.80
2022-10-26T15:43:11.499Z,7.63
2022-10-26T15:49:54.081Z,10.82
2022-10-26T15:56:36.859Z,6.80
2022-10-26T16:03:22.432Z,7.80
2022-10-26T16:10:05.518Z,9.82
2022-10-26T16:16:47.834Z,6.15
2022-10-26T16:23:30.307Z,5.97
2022-10-26T16:30:14.169Z,7.70
2022-10-26T16:36:56.484Z,5.50
2022-10-26T16:43:40.974Z,8.75
2022-10-26T16:50:24.160Z,6.90
2022-10-26T16:57:06.703Z,9.65
2022-10-26T17:03:50.896Z,10.60
2022-10-26T17:10:33.706Z,10.15
2022-10-26T17:17:16.138Z,7.20
2022-10-26T17:23:58.902Z,7.72
2022-10-26T17:30:41.503Z,12.65
2022-10-26T17:37:23.893Z,16.88
2022-10-26T17:44:06.225Z,10.85
2022-10-26T17:50:48.604Z,11.25
2022-10-26T17:57:39.931Z,7.72
2022-10-26T18:04:23.289Z,21.15
2022-10-26T18:11:10.617Z,12.82
2022-10-26T18:17:56.761Z,10.63
2022-10-26T18:24:42.171Z,11.93
2022-10-26T18:31:25.599Z,6.38
2022-10-26T18:38:07.885Z,10.50
2022-10-26T18:44:50.289Z,11.88
2022-10-26T18:51:37.521Z,12.45
2022-10-26T18:58:19.824Z,12.35
2022-10-26T19:05:02.129Z,15.95
2022-10-26T19:12:01.403Z,10.38
2022-10-26T19:18:46.152Z,15.93
2022-10-26T19:25:28.530Z,10.70
2022-10-26T19:32:12.247Z,12.48
2022-10-26T19:38:55.715Z,13.27
2022-10-26T19:45:38.443Z,11.95
2022-10-26T19:52:20.786Z,11.63
2022-10-26T19:59:03.338Z,9.15
2022-10-26T20:05:45.680Z,10.10
2022-10-26T20:12:28.376Z,10.60
2022-10-26T20:19:13.799Z,12.57
2022-10-26T20:25:58.233Z,11.13
2022-10-26T20:32:40.606Z,10.48
2022-10-26T20:39:23.324Z,12.20
2022-10-26T20:46:18.945Z,16.05
2022-10-26T20:53:26.062Z,13.35
2022-10-26T21:00:10.978Z,11.98
2022-10-26T21:06:53.311Z,12.25
2022-10-26T21:13:35.664Z,11.63
2022-10-26T21:20:18.040Z,14.95
2022-10-26T21:27:00.395Z,19.98
2022-10-26T21:33:43.495Z,14.18
2022-10-26T21:40:25.811Z,12.27
2022-10-26T21:47:08.510Z,13.55
2022-10-26T21:53:51.605Z,14.95
2022-10-26T22:00:33.981Z,10.85
2022-10-26T22:07:17.052Z,11.90
2022-10-26T22:14:03.108Z,11.45
2022-10-26T22:20:54.977Z,13.68
2022-10-26T22:27:37.299Z,11.38
2022-10-26T22:34:19.755Z,18.15
2022-10-26T22:41:02.330Z,13.13
2022-10-26T22:47:44.756Z,14.55
2022-10-26T22:54:27.105Z,13.05
2022-10-26T23:01:15.062Z,11.70
2022-10-26T23:07:57.811Z,22.08
2022-10-26T23:14:40.119Z,18.08
2022-10-26T23:28:07.451Z,12.88
2022-10-26T23:34:49.893Z,18.30
2022-10-26T23:41:32.460Z,24.50
2022-10-26T23:48:15.404Z,18.65
2022-10-26T23:54:57.739Z,14.40
